sensor_id;sensor_type;location;lat;lon;timestamp;pressure;altitude;pressure_sealevel;temperature;humidity
12073;BME280;6098;49.004;8.372;2023-08-17T00:00:47;100495.23;;;22.96;77.51
12073;BME280;6098;49.004;8.372;2023-08-17T00:15:40;100490.70;;;22.96;77.39
12073;BME280;6098;49.004;8.372;2023-08-17T00:30:34;100483.06;;;22.91;78.22
12073;BME280;6098;49.004;8.372;2023-08-17T00:45:25;100473.94;;;22.82;78.84
12073;BME280;6098;49.004;8.372;2023-08-17T01:00:16;100454.92;;;22.68;79.08
12073;BME280;6098;49.004;8.372;2023-08-17T01:15:27;100459.59;;;22.61;79.99
12073;BME280;6098;49.004;8.372;2023-08-17T01:30:23;100458.23;;;22.45;80.36
12073;BME280;6098;49.004;8.372;2023-08-17T01:45:15;100452.06;;;22.23;81.15
12073;BME280;6098;49.004;8.372;2023-08-17T02:00:07;100448.21;;;22.11;82.10
12073;BME280;6098;49.004;8.372;2023-08-17T02:15:00;100433.66;;;21.97;83.06
12073;BME280;6098;49.004;8.372;2023-08-17T02:29:52;100421.44;;;21.87;83.85
12073;BME280;6098;49.004;8.372;2023-08-17T02:44:44;100400.95;;;21.79;84.77
12073;BME280;6098;49.004;8.372;2023-08-17T02:59:37;100406.13;;;21.77;85.31
12073;BME280;6098;49.004;8.372;2023-08-17T03:14:30;100393.20;;;21.70;86.00
12073;BME280;6098;49.004;8.372;2023-08-17T03:29:24;100382.73;;;21.66;86.29
12073;BME280;6098;49.004;8.372;2023-08-17T03:44:16;100374.71;;;21.50;87.11
12073;BME280;6098;49.004;8.372;2023-08-17T03:59:09;100374.48;;;21.31;88.47
12073;BME280;6098;49.004;8.372;2023-08-17T04:14:01;100384.73;;;21.21;88.30
12073;BME280;6098;49.004;8.372;2023-08-17T04:28:54;100407.98;;;21.07;89.50
12073;BME280;6098;49.004;8.372;2023-08-17T04:43:46;100413.80;;;20.96;90.22
12073;BME280;6098;49.004;8.372;2023-08-17T04:58:39;100431.55;;;20.82;90.93
12073;BME280;6098;49.004;8.372;2023-08-17T05:13:32;100429.80;;;20.93;91.03
12073;BME280;6098;49.004;8.372;2023-08-17T05:28:24;100449.01;;;20.93;91.60
12073;BME280;6098;49.004;8.372;2023-08-17T05:43:16;100448.91;;;21.01;92.01
12073;BME280;6098;49.004;8.372;2023-08-17T05:58:09;100466.74;;;21.19;92.37
12073;BME280;6098;49.004;8.372;2023-08-17T06:13:02;100463.83;;;21.27;92.47
12073;BME280;6098;49.004;8.372;2023-08-17T06:27:55;100466.04;;;21.27;93.21
12073;BME280;6098;49.004;8.372;2023-08-17T06:42:49;100468.88;;;21.42;92.58
12073;BME280;6098;49.004;8.372;2023-08-17T06:57:41;100461.81;;;21.62;91.54
12073;BME280;6098;49.004;8.372;2023-08-17T07:12:33;100466.33;;;21.77;91.54
12073;BME280;6098;49.004;8.372;2023-08-17T07:27:27;100471.56;;;22.01;90.61
12073;BME280;6098;49.004;8.372;2023-08-17T07:42:20;100455.55;;;22.14;90.50
12073;BME280;6098;49.004;8.372;2023-08-17T07:57:12;100480.44;;;22.28;89.57
12073;BME280;6098;49.004;8.372;2023-08-17T08:12:06;100489.98;;;22.48;89.31
12073;BME280;6098;49.004;8.372;2023-08-17T08:26:59;100485.95;;;22.69;88.72
12073;BME280;6098;49.004;8.372;2023-08-17T08:41:51;100493.09;;;22.74;88.38
12073;BME280;6098;49.004;8.372;2023-08-17T08:56:44;100485.91;;;22.89;87.43
12073;BME280;6098;49.004;8.372;2023-08-17T09:42:06;100454.64;;;23.61;84.05
12073;BME280;6098;49.004;8.372;2023-08-17T09:57:15;100458.21;;;23.90;81.22
12073;BME280;6098;49.004;8.372;2023-08-17T10:12:10;100459.25;;;24.03;80.41
12073;BME280;6098;49.004;8.372;2023-08-17T10:27:03;100452.80;;;24.33;79.30
12073;BME280;6098;49.004;8.372;2023-08-17T10:41:56;100471.18;;;24.48;78.87
12073;BME280;6098;49.004;8.372;2023-08-17T10:56:49;100476.42;;;24.83;76.45
12073;BME280;6098;49.004;8.372;2023-08-17T11:11:41;100476.58;;;24.95;77.01
12073;BME280;6098;49.004;8.372;2023-08-17T11:26:35;100454.70;;;25.20;75.18
12073;BME280;6098;49.004;8.372;2023-08-17T11:41:30;100492.74;;;25.70;74.56
12073;BME280;6098;49.004;8.372;2023-08-17T11:56:23;100501.69;;;25.97;72.28
12073;BME280;6098;49.004;8.372;2023-08-17T12:11:16;100489.81;;;25.76;71.19
12073;BME280;6098;49.004;8.372;2023-08-17T12:26:09;100466.34;;;26.50;68.43
12073;BME280;6098;49.004;8.372;2023-08-17T12:41:04;100446.47;;;26.71;67.91
12073;BME280;6098;49.004;8.372;2023-08-17T12:55:56;100414.52;;;26.94;68.31
12073;BME280;6098;49.004;8.372;2023-08-17T13:10:48;100390.88;;;27.11;65.52
12073;BME280;6098;49.004;8.372;2023-08-17T13:25:41;100378.50;;;27.42;65.63
12073;BME280;6098;49.004;8.372;2023-08-17T13:40:34;100347.05;;;27.75;63.32
12073;BME280;6098;49.004;8.372;2023-08-17T13:55:27;100345.78;;;28.19;63.07
12073;BME280;6098;49.004;8.372;2023-08-17T14:10:20;100327.63;;;28.50;61.75
12073;BME280;6098;49.004;8.372;2023-08-17T14:25:26;100311.55;;;29.14;60.87
12073;BME280;6098;49.004;8.372;2023-08-17T14:40:21;100291.52;;;29.59;58.62
12073;BME280;6098;49.004;8.372;2023-08-17T14:55:16;100261.67;;;30.28;58.17
12073;BME280;6098;49.004;8.372;2023-08-17T15:10:12;100241.79;;;30.23;56.06
12073;BME280;6098;49.004;8.372;2023-08-17T15:25:05;100244.30;;;29.70;58.63
12073;BME280;6098;49.004;8.372;2023-08-17T15:39:58;100254.00;;;29.31;59.99
12073;BME280;6098;49.004;8.372;2023-08-17T15:54:50;100252.12;;;28.89;59.99
12073;BME280;6098;49.004;8.372;2023-08-17T16:09:43;100213.36;;;28.71;61.03
12073;BME280;6098;49.004;8.372;2023-08-17T16:24:37;100207.80;;;28.53;63.16
12073;BME280;6098;49.004;8.372;2023-08-17T16:39:29;100231.77;;;28.31;63.73
12073;BME280;6098;49.004;8.372;2023-08-17T16:54:22;100252.59;;;28.19;65.88
12073;BME280;6098;49.004;8.372;2023-08-17T17:09:18;100250.68;;;28.28;65.02
12073;BME280;6098;49.004;8.372;2023-08-17T17:24:10;100251.92;;;28.17;64.30
12073;BME280;6098;49.004;8.372;2023-08-17T17:39:02;100271.37;;;27.98;64.57
12073;BME280;6098;49.004;8.372;2023-08-17T17:53:54;100278.27;;;27.86;65.30
12073;BME280;6098;49.004;8.372;2023-08-17T18:08:47;100282.17;;;27.79;67.33
12073;BME280;6098;49.004;8.372;2023-08-17T18:23:39;100278.94;;;27.63;68.44
12073;BME280;6098;49.004;8.372;2023-08-17T18:38:31;100291.38;;;27.46;68.79
12073;BME280;6098;49.004;8.372;2023-08-17T18:53:24;100287.95;;;27.32;70.22
12073;BME280;6098;49.004;8.372;2023-08-17T19:08:20;100286.38;;;27.17;70.92
12073;BME280;6098;49.004;8.372;2023-08-17T19:23:15;100279.63;;;27.04;71.50
12073;BME280;6098;49.004;8.372;2023-08-17T19:38:08;100291.75;;;26.89;72.77
12073;BME280;6098;49.004;8.372;2023-08-17T19:53:01;100296.61;;;26.73;73.63
12073;BME280;6098;49.004;8.372;2023-08-17T20:07:52;100309.91;;;26.51;74.64
12073;BME280;6098;49.004;8.372;2023-08-17T20:22:45;100310.98;;;26.24;75.95
12073;BME280;6098;49.004;8.372;2023-08-17T20:37:37;100310.42;;;26.08;77.19
12073;BME280;6098;49.004;8.372;2023-08-17T20:52:31;100308.64;;;25.99;78.12
12073;BME280;6098;49.004;8.372;2023-08-17T21:07:23;100287.70;;;25.91;79.38
12073;BME280;6098;49.004;8.372;2023-08-17T21:22:15;100272.20;;;25.84;80.48
12073;BME280;6098;49.004;8.372;2023-08-17T21:37:08;100267.07;;;25.77;80.74
12073;BME280;6098;49.004;8.372;2023-08-17T21:52:01;100264.22;;;25.69;81.58
12073;BME280;6098;49.004;8.372;2023-08-17T22:06:58;100255.04;;;25.58;82.86
12073;BME280;6098;49.004;8.372;2023-08-17T22:21:52;100267.08;;;25.46;83.59
12073;BME280;6098;49.004;8.372;2023-08-17T22:36:44;100264.34;;;25.37;84.65
12073;BME280;6098;49.004;8.372;2023-08-17T22:51:37;100266.70;;;25.36;85.14
12073;BME280;6098;49.004;8.372;2023-08-17T23:06:31;100260.16;;;25.25;85.85
12073;BME280;6098;49.004;8.372;2023-08-17T23:21:23;100267.11;;;25.15;86.33
12073;BME280;6098;49.004;8.372;2023-08-17T23:36:17;100253.48;;;24.93;87.66
12073;BME280;6098;49.004;8.372;2023-08-17T23:51:09;100250.67;;;24.85;88.19
